Time;durP1;ratioP1;P1;durP2;ratioP2;P2;SDS_P1;SDS_P2;PMS_P1;PMS_P2;Temp;Humidity;BMP_temperature;BMP_pressure;BME280_temperature;BME280_humidity;BME280_pressure;Samples;Min_cycle;Max_cycle;Signal;HPM_P1;HPM_P2
2022/08/15 00:01:14;;;;;;;7.37;6.67;;;;;;;25.71;42.29;96923.84;8283140;28;20242;-73
2022/08/15 00:05:23;;;;;;;6.70;6.10;;;;;;;25.78;41.64;96928.38;8283008;28;20559;-73
2022/08/15 00:09:26;;;;;;;6.60;6.00;;;;;;;25.82;41.27;96924.34;8282379;28;20234;-74
2022/08/15 00:13:55;;;;;;;7.30;6.00;;;;;;;25.87;41.58;96920.09;8282164;28;20230;-74
2022/08/15 00:18:02;;;;;;;6.80;6.03;;;;;;;25.83;41.68;96910.88;8282824;28;20239;-74
2022/08/15 00:22:09;;;;;;;7.83;6.77;;;;;;;25.81;41.48;96907.59;8282824;28;20236;-74
2022/08/15 00:26:20;;;;;;;7.77;6.50;;;;;;;25.81;41.34;96904.94;8282566;28;20226;-73
2022/08/15 00:30:31;;;;;;;7.23;6.53;;;;;;;25.81;41.65;96912.09;8282347;28;20656;-74
2022/08/15 00:34:53;;;;;;;9.03;6.30;;;;;;;25.74;41.78;96914.66;8281702;28;20242;-73
2022/08/15 00:38:58;;;;;;;8.10;6.30;;;;;;;25.77;41.80;96902.88;8282012;28;20276;-74
2022/08/15 00:43:02;;;;;;;8.83;6.83;;;;;;;25.68;41.91;96905.66;8281943;28;20248;-74
2022/08/15 00:47:08;;;;;;;6.90;6.23;;;;;;;25.70;41.78;96905.47;8281837;28;20235;-74
2022/08/15 00:51:13;;;;;;;7.77;6.77;;;;;;;25.67;42.01;96913.81;8281972;28;20231;-73
2022/08/15 00:55:19;;;;;;;7.87;6.67;;;;;;;25.68;42.19;96899.53;8281614;28;20392;-74
2022/08/15 00:59:31;;;;;;;7.33;6.63;;;;;;;25.58;42.24;96899.03;8281877;28;20308;-73
2022/08/15 01:03:37;;;;;;;7.30;6.53;;;;;;;25.53;42.33;96903.06;8281709;28;20231;-75
2022/08/15 01:07:57;;;;;;;11.73;6.67;;;;;;;25.34;42.85;96911.59;8281373;28;20267;-73
2022/08/15 01:12:05;;;;;;;8.47;6.30;;;;;;;25.53;42.85;96913.69;8281525;28;20233;-73
2022/08/15 01:16:09;;;;;;;7.07;6.47;;;;;;;25.64;42.41;96922.94;8281439;28;20236;-74
2022/08/15 01:20:18;;;;;;;8.10;6.80;;;;;;;25.57;42.47;96924.72;8281297;28;20231;-74
2022/08/15 01:24:47;;;;;;;6.80;6.30;;;;;;;25.58;42.91;96918.41;8287514;28;20514;-74
2022/08/15 01:29:10;;;;;;;7.77;6.50;;;;;;;25.55;43.01;96914.31;8287642;28;20245;-74
2022/08/15 01:33:20;;;;;;;7.60;6.80;;;;;;;25.45;43.39;96908.47;8287787;28;20494;-74
2022/08/15 01:37:24;;;;;;;9.60;6.70;;;;;;;25.39;43.65;96903.94;8287682;28;20237;-74
2022/08/15 01:41:52;;;;;;;7.40;6.70;;;;;;;25.51;43.27;96907.75;8287579;28;20232;-74
2022/08/15 01:46:02;;;;;;;7.90;7.10;;;;;;;25.30;43.97;96899.75;8287130;28;20237;-73
2022/08/15 01:50:10;;;;;;;7.40;6.70;;;;;;;25.30;43.98;96897.09;8287307;28;20303;-74
2022/08/15 01:54:14;;;;;;;8.30;6.50;;;;;;;25.38;43.99;96897.00;8286699;28;20250;-74
2022/08/15 01:58:40;;;;;;;7.70;6.97;;;;;;;25.37;43.82;96900.66;8286858;28;20246;-74
2022/08/15 02:02:44;;;;;;;7.30;6.60;;;;;;;25.03;44.03;96904.72;8286858;28;20299;-74
2022/08/15 02:06:49;;;;;;;8.87;6.80;;;;;;;24.91;44.53;96904.38;8286210;28;20232;-74
2022/08/15 02:10:58;;;;;;;7.70;6.87;;;;;;;25.09;44.13;96896.03;8286340;28;20302;-74
2022/08/15 02:15:07;;;;;;;7.30;6.60;;;;;;;25.02;44.18;96886.34;8286112;28;20250;-74
2022/08/15 02:19:13;;;;;;;7.10;6.50;;;;;;;25.16;43.90;96888.97;8286441;28;20263;-74
2022/08/15 02:23:16;;;;;;;7.43;6.70;;;;;;;25.19;44.35;96895.75;8286405;28;20249;-74
2022/08/15 02:27:22;;;;;;;8.00;7.03;;;;;;;25.11;44.26;96890.53;8286123;28;20228;-73
2022/08/15 02:31:28;;;;;;;7.13;6.43;;;;;;;25.16;43.73;96883.69;8285866;28;20300;-74
2022/08/15 02:35:36;;;;;;;9.37;6.97;;;;;;;25.07;44.37;96887.44;8284703;28;20231;-75
2022/08/15 02:39:40;;;;;;;10.47;6.70;;;;;;;25.11;43.97;96894.03;8285844;28;20231;-74
2022/08/15 02:43:45;;;;;;;8.33;7.17;;;;;;;25.11;43.97;96879.94;8285548;28;20259;-74
2022/08/15 02:47:51;;;;;;;9.13;7.17;;;;;;;25.10;44.03;96881.78;8285062;28;20246;-74
2022/08/15 02:51:54;;;;;;;9.90;6.80;;;;;;;25.13;44.20;96878.78;8285175;28;20237;-74
2022/08/15 02:55:59;;;;;;;9.20;6.90;;;;;;;24.98;44.64;96880.63;8284904;28;20244;-74
2022/08/15 03:00:03;;;;;;;7.53;6.67;;;;;;;24.92;44.94;96876.91;8285226;28;20551;-74
2022/08/15 03:04:23;;;;;;;7.67;6.60;;;;;;;24.88;44.86;96874.78;8284778;28;20255;-74
2022/08/15 03:08:30;;;;;;;7.80;7.10;;;;;;;24.87;44.90;96866.03;8284747;28;20247;-74
2022/08/15 03:12:47;;;;;;;7.60;6.80;;;;;;;24.88;45.15;96861.53;8284514;28;20233;-73
2022/08/15 03:16:51;;;;;;;7.13;6.43;;;;;;;24.91;44.79;96866.47;8284115;28;20241;-73
2022/08/15 03:20:57;;;;;;;8.07;7.27;;;;;;;24.98;44.25;96867.38;8284532;28;20504;-73
2022/08/15 03:25:00;;;;;;;7.70;7.00;;;;;;;24.99;44.14;96874.31;8284229;28;20241;-73
2022/08/15 03:29:06;;;;;;;7.70;7.00;;;;;;;24.97;44.59;96865.72;8284167;28;20564;-73
2022/08/15 03:33:18;;;;;;;8.83;6.90;;;;;;;24.78;45.47;96873.25;8284079;28;20230;-74
2022/08/15 03:37:42;;;;;;;7.60;6.90;;;;;;;24.81;45.33;96873.88;8284004;28;20230;-74
2022/08/15 03:42:09;;;;;;;8.00;7.20;;;;;;;24.82;45.51;96867.59;8283557;28;20232;-73
2022/08/15 03:46:21;;;;;;;7.23;6.60;;;;;;;24.83;45.60;96870.06;8283616;28;20425;-73
2022/08/15 03:50:26;;;;;;;8.00;7.20;;;;;;;24.83;45.67;96877.16;8283548;28;20242;-74
2022/08/15 03:54:45;;;;;;;7.90;7.13;;;;;;;24.88;44.78;96877.44;8283423;28;20289;-74
2022/08/15 03:58:52;;;;;;;10.73;7.10;;;;;;;24.77;45.55;96876.09;8282926;28;20520;-73
2022/08/15 04:03:05;;;;;;;9.63;7.20;;;;;;;24.77;45.64;96866.31;8283099;28;20255;-74
2022/08/15 04:07:09;;;;;;;7.40;6.70;;;;;;;24.64;46.10;96876.75;8282899;28;20240;-74
2022/08/15 04:11:30;;;;;;;7.73;7.00;;;;;;;24.64;46.12;96883.88;8282755;28;20234;-74
2022/08/15 04:15:38;;;;;;;11.33;6.93;;;;;;;24.69;45.12;96892.88;8282703;28;20233;-74
2022/08/15 04:19:41;;;;;;;8.30;7.00;;;;;;;24.70;45.01;96893.72;8282768;28;20231;-74
2022/08/15 04:23:50;;;;;;;9.33;6.70;;;;;;;24.69;44.95;96895.50;8282064;28;20233;-73
2022/08/15 04:27:59;;;;;;;6.57;5.80;;;;;;;24.88;43.92;96902.06;8282390;28;20249;-74
2022/08/15 04:32:12;;;;;;;7.83;5.53;;;;;;;24.94;43.28;96900.53;8282411;28;20240;-73
2022/08/15 04:36:17;;;;;;;8.47;4.73;;;;;;;25.03;42.65;96906.53;8282215;28;20238;-74
2022/08/15 04:40:21;;;;;;;7.80;4.63;;;;;;;25.07;42.13;96911.28;8282479;28;20246;-74
2022/08/15 04:44:45;;;;;;;9.13;4.57;;;;;;;25.09;41.89;96913.75;8282139;28;20225;-74
2022/08/15 04:48:48;;;;;;;6.93;4.63;;;;;;;25.20;42.46;96917.75;8281532;28;20236;-74
2022/08/15 04:52:53;;;;;;;6.90;4.23;;;;;;;25.24;41.90;96914.56;8281909;28;20237;-73
2022/08/15 04:56:56;;;;;;;7.20;3.87;;;;;;;25.20;41.87;96917.75;8281289;28;20232;-73
2022/08/15 05:01:05;;;;;;;8.53;4.40;;;;;;;25.24;41.52;96919.06;8281936;28;20265;-74
2022/08/15 05:05:11;;;;;;;5.80;4.03;;;;;;;25.29;42.13;96906.88;8281532;28;20231;-75
2022/08/15 05:09:13;;;;;;;6.17;4.00;;;;;;;25.29;41.66;96920.13;8281751;28;20231;-74
2022/08/15 05:13:18;;;;;;;11.13;4.30;;;;;;;25.41;41.46;96919.66;8281626;28;20354;-73
2022/08/15 05:17:23;;;;;;;6.03;3.70;;;;;;;25.36;41.45;96913.09;8281783;28;20232;-74
2022/08/15 05:21:27;;;;;;;10.20;4.63;;;;;;;25.44;41.58;96908.69;8281720;28;20253;-74
2022/08/15 05:25:50;;;;;;;11.20;4.20;;;;;;;25.41;42.02;96906.41;8281296;28;20289;-74
2022/08/15 05:29:53;;;;;;;7.63;3.70;;;;;;;25.58;42.11;96902.50;8281032;28;20282;-73
2022/08/15 05:33:57;;;;;;;7.07;4.00;;;;;;;25.69;42.01;96904.66;8281423;28;20241;-74
2022/08/15 05:38:01;;;;;;;8.33;3.50;;;;;;;25.79;42.29;96914.13;8281436;28;20233;-74
2022/08/15 05:42:34;;;;;;;9.20;3.37;;;;;;;25.80;42.29;96921.88;8281290;28;20250;-76
2022/08/15 05:46:43;;;;;;;8.90;3.20;;;;;;;25.81;42.52;96922.69;8281294;28;20227;-74
2022/08/15 05:50:52;;;;;;;7.80;3.27;;;;;;;25.83;42.73;96923.34;8281215;28;20235;-74
2022/08/15 05:55:10;;;;;;;7.63;3.10;;;;;;;25.90;42.82;96929.53;8280803;28;20237;-73
2022/08/15 05:59:15;;;;;;;8.40;3.37;;;;;;;26.01;42.54;96933.50;8281155;28;20237;-74
2022/08/15 06:03:24;;;;;;;6.53;3.20;;;;;;;25.96;42.70;96933.28;8280804;28;20330;-74
2022/08/15 06:07:45;;;;;;;13.07;3.47;;;;;;;26.26;42.52;96931.28;8280785;28;20549;-74
2022/08/15 06:12:05;;;;;;;7.67;3.30;;;;;;;26.32;42.38;96933.16;8286118;28;20237;-73
2022/08/15 06:16:34;;;;;;;6.37;3.27;;;;;;;26.38;42.19;96939.53;8286496;28;20241;-74
2022/08/15 06:20:58;;;;;;;8.53;3.23;;;;;;;26.69;42.24;96941.81;8286151;28;20317;-74
2022/08/15 06:25:13;;;;;;;8.37;3.23;;;;;;;26.86;41.11;96943.13;8286334;28;20336;-74
2022/08/15 06:29:50;;;;;;;7.07;2.97;;;;;;;26.88;41.50;96946.44;8286473;28;20225;-75
2022/08/15 06:34:03;;;;;;;6.23;2.77;;;;;;;26.77;41.58;96943.47;8281486;28;20232;-75
2022/08/15 06:38:12;;;;;;;6.47;2.80;;;;;;;26.43;42.48;96947.75;8286050;28;20243;-75
2022/08/15 06:42:38;;;;;;;10.00;2.90;;;;;;;26.30;42.65;96945.81;8285752;28;20230;-75
2022/08/15 06:46:41;;;;;;;6.60;3.00;;;;;;;26.31;42.99;96953.59;8285790;28;20227;-75
2022/08/15 06:50:52;;;;;;;10.10;3.00;;;;;;;26.22;42.96;96959.22;8285030;28;20229;-75
2022/08/15 06:54:55;;;;;;;9.80;3.30;;;;;;;26.01;43.76;96966.19;8285479;28;20236;-74
2022/08/15 06:59:03;;;;;;;10.73;3.30;;;;;;;25.99;43.34;96973.50;8285354;28;20232;-75
2022/08/15 07:03:14;;;;;;;7.30;2.93;;;;;;;25.88;44.01;96982.75;8284659;28;20235;-74
2022/08/15 07:07:24;;;;;;;8.53;3.53;;;;;;;25.96;43.92;96981.81;8285204;28;20225;-75
2022/08/15 07:11:31;;;;;;;8.40;3.67;;;;;;;26.14;43.15;96989.31;8284435;28;20254;-75
2022/08/15 07:15:47;;;;;;;5.37;2.90;;;;;;;26.25;42.80;96977.38;8284726;28;20253;-75
2022/08/15 07:19:56;;;;;;;6.30;2.77;;;;;;;26.07;43.81;96977.88;8283813;28;20222;-76
2022/08/15 07:24:29;;;;;;;8.13;3.13;;;;;;;26.21;43.54;96970.84;8284193;28;20236;-75
2022/08/15 07:28:42;;;;;;;8.73;3.00;;;;;;;26.28;43.46;96972.53;8284235;28;20263;-76
2022/08/15 07:32:51;;;;;;;4.80;2.67;;;;;;;26.27;43.54;96967.41;8284303;28;20537;-76
2022/08/15 07:36:57;;;;;;;4.73;2.70;;;;;;;26.37;43.40;96975.03;8283408;28;20234;-75
2022/08/15 07:41:21;;;;;;;5.57;2.93;;;;;;;26.09;44.25;96978.50;8284044;28;20342;-75
2022/08/15 07:45:30;;;;;;;10.20;3.30;;;;;;;26.17;44.60;96972.22;8283769;28;20237;-76
2022/08/15 07:49:37;;;;;;;8.53;3.23;;;;;;;26.33;43.50;96967.47;8283803;28;20236;-76
2022/08/15 07:53:49;;;;;;;10.47;3.20;;;;;;;26.45;44.03;96964.28;8283659;28;20556;-76
2022/08/15 07:58:02;;;;;;;5.77;2.90;;;;;;;26.42;44.17;96959.38;8283351;28;20230;-75
2022/08/15 08:02:28;;;;;;;10.27;3.93;;;;;;;26.60;44.18;96953.59;8283511;28;20230;-75
2022/08/15 08:06:44;;;;;;;5.90;3.17;;;;;;;26.99;42.66;96960.97;8283148;28;20559;-75
2022/08/15 08:10:57;;;;;;;8.93;3.00;;;;;;;27.39;42.26;96971.81;8282513;28;20237;-75
2022/08/15 08:15:05;;;;;;;6.07;2.80;;;;;;;27.12;42.29;96973.50;8282545;28;20251;-75
2022/08/15 08:19:14;;;;;;;7.73;3.30;;;;;;;27.11;42.35;96974.50;8282899;28;20571;-75
2022/08/15 08:23:23;;;;;;;7.93;2.90;;;;;;;27.11;42.78;96982.47;8282935;28;20234;-75
2022/08/15 08:27:39;;;;;;;6.83;2.50;;;;;;;27.27;41.75;96979.53;8282749;28;20234;-75
2022/08/15 08:32:01;;;;;;;4.93;2.70;;;;;;;27.56;41.16;96984.75;8281112;28;20252;-75
2022/08/15 08:36:30;;;;;;;7.23;2.90;;;;;;;28.01;40.41;97003.72;8282167;28;20232;-75
2022/08/15 08:45:17;;;;;;;5.07;2.90;;;;;;;27.94;39.84;97000.22;8281768;28;20422;-76
2022/08/15 08:49:23;;;;;;;6.47;2.53;;;;;;;27.91;39.97;97000.63;8282440;28;20390;-75
2022/08/15 08:53:54;;;;;;;6.40;2.83;;;;;;;28.04;39.80;96993.47;8281700;28;20237;-75
2022/08/15 08:58:03;;;;;;;16.10;2.80;;;;;;;28.39;39.44;96995.97;8281687;28;20390;-77
2022/08/15 09:02:18;;;;;;;4.93;2.93;;;;;;;28.50;38.83;96985.72;8281733;28;20248;-77
2022/08/15 09:06:26;;;;;;;7.33;3.23;;;;;;;27.97;39.60;96995.34;8281739;28;20277;-77
2022/08/15 09:10:34;;;;;;;6.10;2.80;;;;;;;28.19;38.55;96998.63;8281401;28;20260;-76
2022/08/15 09:14:43;;;;;;;13.23;3.10;;;;;;;28.35;38.71;96989.44;8280767;28;20241;-77
2022/08/15 09:19:05;;;;;;;6.70;2.73;;;;;;;28.22;38.56;96984.09;8281476;28;20232;-75
2022/08/15 09:23:15;;;;;;;16.80;3.27;;;;;;;28.11;38.69;96993.50;8281742;28;20235;-77
2022/08/15 09:27:22;;;;;;;11.10;3.00;;;;;;;28.34;38.24;96990.44;8280704;28;20410;-76
2022/08/15 09:31:31;;;;;;;9.93;3.00;;;;;;;28.59;37.53;96987.19;8280039;28;20243;-75
2022/08/15 09:35:50;;;;;;;7.13;2.53;;;;;;;28.79;37.29;96997.84;8280787;28;20301;-75
2022/08/15 09:40:06;;;;;;;8.67;2.97;;;;;;;29.07;37.50;96994.88;8281016;28;20232;-76
2022/08/15 09:44:45;;;;;;;6.77;3.07;;;;;;;29.08;37.45;96995.72;8285012;28;20226;-78
2022/08/15 09:49:12;;;;;;;7.17;2.90;;;;;;;29.04;38.12;96993.47;8287441;28;20251;-78
2022/08/15 09:53:29;;;;;;;16.37;3.43;;;;;;;29.32;36.57;96996.88;8287189;28;20240;-76
2022/08/15 09:57:54;;;;;;;8.47;2.63;;;;;;;29.94;35.28;96992.72;8286403;28;20232;-75
2022/08/15 10:01:59;;;;;;;6.97;2.60;;;;;;;29.49;35.69;96991.91;8287004;28;20232;-77
2022/08/15 10:06:26;;;;;;;4.10;2.40;;;;;;;29.68;34.73;96974.16;8286889;28;20225;-75
2022/08/15 10:10:55;;;;;;;4.63;2.07;;;;;;;29.90;33.85;96986.16;8287147;28;20230;-76
2022/08/15 10:15:06;;;;;;;7.17;2.77;;;;;;;30.83;32.13;96973.13;8286158;28;20229;-75
2022/08/15 10:19:13;;;;;;;6.20;2.17;;;;;;;30.03;32.79;96977.25;8286575;28;20526;-77
2022/08/15 10:23:18;;;;;;;6.90;2.27;;;;;;;30.19;32.61;96978.59;8285636;28;20237;-75
2022/08/15 10:27:23;;;;;;;5.63;2.43;;;;;;;29.92;33.49;96981.44;8286210;28;20240;-77
2022/08/15 10:31:28;;;;;;;7.43;2.50;;;;;;;29.59;33.82;96982.41;8286455;28;20235;-76
2022/08/15 10:35:53;;;;;;;6.47;2.30;;;;;;;29.35;33.68;96983.94;8285582;28;20259;-76
2022/08/15 10:40:27;;;;;;;5.00;2.40;;;;;;;29.53;33.19;96983.28;8286020;28;20550;-76
2022/08/15 10:44:42;;;;;;;4.50;2.63;;;;;;;30.48;32.26;96973.66;8284142;28;20294;-75
2022/08/15 10:48:52;;;;;;;5.10;2.47;;;;;;;30.99;30.90;96970.69;8285799;28;20234;-75
2022/08/15 10:53:07;;;;;;;4.27;2.40;;;;;;;31.55;30.03;96984.09;8285136;28;20314;-75
2022/08/15 10:57:15;;;;;;;5.63;2.27;;;;;;;30.63;31.15;96984.00;8284733;28;20241;-77
2022/08/15 11:01:22;;;;;;;6.93;2.40;;;;;;;30.18;32.95;96988.44;8285431;28;20528;-77
2022/08/15 11:05:26;;;;;;;6.70;2.40;;;;;;;30.54;32.42;96980.78;8285281;28;20225;-75
2022/08/15 11:09:30;;;;;;;6.07;2.80;;;;;;;30.77;32.00;96977.50;8284329;28;20333;-77
2022/08/15 11:13:36;;;;;;;9.00;2.73;;;;;;;31.08;31.59;96978.44;8284838;28;20525;-76
2022/08/15 11:17:40;;;;;;;3.90;2.57;;;;;;;32.02;30.73;96972.75;8285109;28;20549;-77
2022/08/15 11:21:50;;;;;;;5.93;2.53;;;;;;;32.25;30.08;96970.13;8284256;28;20237;-77
2022/08/15 11:25:57;;;;;;;5.23;2.57;;;;;;;32.27;29.39;96959.16;8284835;28;20578;-77
2022/08/15 11:30:03;;;;;;;8.37;3.23;;;;;;;31.82;30.28;96960.44;8284679;28;20243;-78
2022/08/15 11:34:27;;;;;;;6.70;2.70;;;;;;;30.99;31.10;96969.88;8284849;28;20235;-76
2022/08/15 11:38:49;;;;;;;5.03;2.30;;;;;;;31.58;30.00;96967.56;8284651;28;20246;-76
2022/08/15 11:43:15;;;;;;;4.57;2.60;;;;;;;31.29;30.71;96959.25;8283428;28;20226;-77
2022/08/15 11:47:20;;;;;;;5.23;2.20;;;;;;;30.58;30.52;96968.66;8283649;28;20227;-78
2022/08/15 11:51:25;;;;;;;6.37;2.70;;;;;;;29.77;32.04;96970.25;8283425;28;20421;-78
2022/08/15 11:55:45;;;;;;;9.30;2.37;;;;;;;29.91;32.03;96961.13;8283668;28;20230;-77
2022/08/15 11:59:59;;;;;;;3.67;2.37;;;;;;;30.10;31.86;96970.03;8282944;28;20455;-76
2022/08/15 12:04:08;;;;;;;4.50;2.07;;;;;;;31.37;30.31;96963.47;8283070;28;20241;-77
2022/08/15 12:08:33;;;;;;;6.20;2.27;;;;;;;31.78;30.06;96953.91;8281893;28;20264;-78
2022/08/15 12:12:43;;;;;;;4.57;2.17;;;;;;;32.03;27.52;96956.44;8282699;28;20234;-78
2022/08/15 12:16:49;;;;;;;4.63;2.00;;;;;;;31.59;28.88;96953.16;8282701;28;20235;-78
2022/08/15 12:21:09;;;;;;;4.10;2.07;;;;;;;30.98;28.57;96947.69;8282546;28;20280;-77
2022/08/15 12:25:13;;;;;;;4.97;2.20;;;;;;;30.47;30.09;96945.31;8282427;28;20415;-77
2022/08/15 12:29:34;;;;;;;6.70;2.20;;;;;;;31.43;28.00;96943.03;8282478;28;20521;-76
2022/08/15 12:33:37;;;;;;;5.60;2.60;;;;;;;31.44;29.22;96934.78;8282309;28;20258;-75
2022/08/15 12:37:55;;;;;;;3.90;1.80;;;;;;;30.77;29.31;96943.56;8281621;28;20537;-76
2022/08/15 12:41:59;;;;;;;2.10;1.70;;;;;;;30.49;30.21;96943.25;8281961;28;20241;-76
2022/08/15 12:46:23;;;;;;;3.67;1.90;;;;;;;31.02;29.15;96933.91;8282004;28;20244;-77
2022/08/15 12:50:29;;;;;;;3.40;2.10;;;;;;;31.75;28.95;96935.63;8282094;28;20222;-77
2022/08/15 12:54:33;;;;;;;3.10;1.90;;;;;;;31.52;28.09;96939.03;8281396;28;20414;-77
2022/08/15 12:58:40;;;;;;;5.27;2.00;;;;;;;31.18;29.01;96936.75;8282041;28;20417;-77
2022/08/15 13:02:46;;;;;;;2.87;1.70;;;;;;;31.98;27.72;96929.50;8281858;28;20538;-76
2022/08/15 13:07:00;;;;;;;2.13;1.60;;;;;;;32.29;26.77;96922.25;8281187;28;20224;-77
2022/08/15 13:11:05;;;;;;;4.80;1.77;;;;;;;31.89;27.47;96915.66;8281416;28;20250;-78
2022/08/15 13:15:14;;;;;;;3.67;1.80;;;;;;;31.97;27.69;96911.84;8281237;28;20228;-76
2022/08/15 13:19:19;;;;;;;4.23;1.57;;;;;;;31.89;27.29;96902.28;8285967;28;20547;-76
2022/08/15 13:23:40;;;;;;;4.40;1.70;;;;;;;31.17;28.01;96905.72;8287091;28;20229;-75
2022/08/15 13:28:05;;;;;;;3.47;1.90;;;;;;;31.49;27.35;96892.19;8287642;28;20243;-74
2022/08/15 13:32:13;;;;;;;2.30;1.60;;;;;;;31.38;27.42;96890.25;8287851;28;20234;-75
2022/08/15 13:36:19;;;;;;;3.73;1.70;;;;;;;31.99;26.23;96879.47;8287806;28;20235;-76
2022/08/15 13:40:32;;;;;;;2.87;1.60;;;;;;;31.41;27.33;96883.59;8287763;28;20227;-75
2022/08/15 13:44:37;;;;;;;2.40;1.50;;;;;;;32.24;26.13;96874.75;8287577;28;20227;-75
2022/08/15 13:48:45;;;;;;;2.97;1.57;;;;;;;31.24;25.95;96872.72;8287446;28;20275;-75
2022/08/15 13:52:57;;;;;;;6.80;1.47;;;;;;;31.13;26.59;96875.13;8286707;28;20232;-75
2022/08/15 13:57:05;;;;;;;8.60;1.53;;;;;;;31.49;25.61;96873.44;8287236;28;20553;-76
2022/08/15 14:01:16;;;;;;;2.67;1.50;;;;;;;31.69;25.81;96883.84;8287075;28;20228;-75
2022/08/15 14:05:23;;;;;;;2.53;1.30;;;;;;;32.24;25.31;96872.06;8286891;28;20245;-75
2022/08/15 14:09:28;;;;;;;2.77;1.40;;;;;;;32.37;25.70;96873.69;8288046;28;20319;-76
2022/08/15 14:13:52;;;;;;;3.53;1.77;;;;;;;31.87;24.70;96879.44;8285983;28;20242;-75
2022/08/15 14:17:58;;;;;;;3.13;1.20;;;;;;;31.81;25.18;96881.19;8286575;28;20233;-76
2022/08/15 14:22:05;;;;;;;5.13;1.40;;;;;;;31.51;25.34;96883.91;8286537;28;20535;-75
2022/08/15 14:26:20;;;;;;;2.83;1.20;;;;;;;31.87;25.16;96879.44;8286291;28;20232;-76
2022/08/15 14:30:44;;;;;;;6.37;1.50;;;;;;;31.88;25.20;96875.75;8284925;28;20262;-77
2022/08/15 14:34:59;;;;;;;2.50;1.40;;;;;;;31.81;24.75;96877.69;8285746;28;20237;-76
2022/08/15 14:39:22;;;;;;;2.47;1.30;;;;;;;31.84;24.55;96874.56;8285667;28;20230;-75
2022/08/15 14:43:27;;;;;;;2.20;1.20;;;;;;;31.97;25.02;96866.31;8285717;28;20236;-76
2022/08/15 14:47:32;;;;;;;3.80;1.30;;;;;;;32.01;24.39;96862.13;8285713;28;20254;-75
2022/08/15 14:51:43;;;;;;;5.33;1.53;;;;;;;31.76;25.02;96865.03;8285679;28;20223;-75
2022/08/15 14:56:07;;;;;;;4.57;1.37;;;;;;;31.79;24.54;96861.06;8284936;28;20435;-76
2022/08/15 15:00:16;;;;;;;4.57;1.37;;;;;;;31.43;23.97;96866.28;8285222;28;20246;-76
2022/08/15 15:04:27;;;;;;;4.83;1.53;;;;;;;31.50;24.94;96872.38;8285049;28;20447;-75
2022/08/15 15:08:41;;;;;;;2.90;1.30;;;;;;;31.67;24.85;96869.88;8284885;28;20240;-76
2022/08/15 15:12:44;;;;;;;1.77;1.20;;;;;;;31.70;24.63;96868.59;8282137;28;20245;-75
2022/08/15 15:16:47;;;;;;;2.73;1.73;;;;;;;31.56;24.75;96868.78;8284081;28;20523;-75
2022/08/15 15:20:55;;;;;;;5.30;1.73;;;;;;;31.49;24.68;96873.44;8284480;28;20251;-76
2022/08/15 15:25:00;;;;;;;4.30;1.40;;;;;;;31.51;24.84;96873.19;8284038;28;20255;-74
2022/08/15 15:29:03;;;;;;;3.03;1.60;;;;;;;31.47;25.03;96877.38;8284056;28;20243;-76
2022/08/15 15:33:08;;;;;;;2.83;1.47;;;;;;;31.29;25.45;96878.22;8284120;28;20233;-75
2022/08/15 15:37:11;;;;;;;2.17;1.40;;;;;;;31.50;25.01;96879.59;8283833;28;20230;-75
2022/08/15 15:41:20;;;;;;;5.20;1.67;;;;;;;31.05;25.64;96887.97;8283536;28;20466;-76
2022/08/15 15:45:26;;;;;;;7.03;1.80;;;;;;;31.02;25.79;96885.78;8283861;28;20242;-75
2022/08/15 15:49:32;;;;;;;1.80;1.40;;;;;;;30.78;25.88;96885.59;8283718;28;20238;-75
2022/08/15 15:53:42;;;;;;;2.30;1.20;;;;;;;31.09;26.08;96890.00;8283571;28;20231;-75
2022/08/15 15:57:48;;;;;;;2.20;1.30;;;;;;;31.03;26.67;96884.72;8283567;28;20280;-75
2022/08/15 16:02:07;;;;;;;4.43;1.30;;;;;;;30.88;26.76;96885.06;8283099;28;20240;-75
2022/08/15 16:06:30;;;;;;;2.80;1.40;;;;;;;30.62;26.67;96884.34;8283009;28;20251;-75
2022/08/15 16:10:57;;;;;;;2.53;1.60;;;;;;;30.60;26.86;96895.25;8282547;28;20227;-76
2022/08/15 16:15:03;;;;;;;5.93;1.50;;;;;;;30.43;27.26;96886.19;8282631;28;20240;-74
2022/08/15 16:19:15;;;;;;;1.50;1.30;;;;;;;30.32;27.57;96905.59;8282806;28;20407;-74
2022/08/15 16:23:21;;;;;;;4.57;1.10;;;;;;;30.27;27.90;96900.06;8282886;28;20233;-75
2022/08/15 16:27:27;;;;;;;2.97;1.30;;;;;;;29.92;28.23;96896.03;8282663;28;20238;-75
2022/08/15 16:31:39;;;;;;;4.30;1.70;;;;;;;30.08;28.57;96889.31;8282622;28;20238;-76
2022/08/15 16:35:50;;;;;;;2.27;1.27;;;;;;;30.02;28.15;96890.22;8282403;28;20317;-76
2022/08/15 16:40:00;;;;;;;2.30;1.57;;;;;;;29.89;28.31;96888.47;8281810;28;20233;-74
2022/08/15 16:44:27;;;;;;;2.93;1.50;;;;;;;29.78;28.55;96905.19;8282138;28;20229;-75
2022/08/15 16:48:35;;;;;;;2.33;1.37;;;;;;;29.71;28.22;96902.53;8281972;28;20240;-75
2022/08/15 16:52:46;;;;;;;2.27;1.40;;;;;;;29.68;28.46;96907.47;8281402;28;20234;-75
2022/08/15 16:56:54;;;;;;;3.00;1.50;;;;;;;29.66;28.53;96902.34;8281313;28;20423;-74
2022/08/15 17:01:04;;;;;;;3.63;1.70;;;;;;;29.42;29.06;96909.28;8281976;28;20234;-75
2022/08/15 17:05:28;;;;;;;3.37;1.40;;;;;;;29.34;29.20;96914.84;8281699;28;20245;-76
2022/08/15 17:09:43;;;;;;;4.23;1.60;;;;;;;29.22;29.33;96914.69;8281337;28;20255;-75
2022/08/15 17:14:06;;;;;;;5.10;1.47;;;;;;;29.19;29.06;96917.81;8281168;28;20502;-75
2022/08/15 17:18:35;;;;;;;2.43;1.60;;;;;;;29.13;29.45;96921.28;8281412;28;20238;-75
2022/08/15 17:22:44;;;;;;;2.60;1.60;;;;;;;29.13;29.54;96926.63;8281501;28;20545;-75
2022/08/15 17:26:58;;;;;;;3.73;1.60;;;;;;;29.00;29.82;96922.97;8281145;28;20233;-74
2022/08/15 17:31:23;;;;;;;3.00;1.80;;;;;;;28.92;29.61;96920.53;8281254;28;20260;-75
2022/08/15 17:35:37;;;;;;;3.30;1.60;;;;;;;28.72;30.07;96911.78;8281192;28;20225;-75
2022/08/15 17:39:47;;;;;;;2.60;1.60;;;;;;;28.73;30.29;96914.25;8281261;28;20523;-75
2022/08/15 17:43:59;;;;;;;2.20;1.50;;;;;;;28.69;30.06;96918.31;8280907;28;20231;-75
2022/08/15 17:48:08;;;;;;;4.80;1.73;;;;;;;28.64;31.51;96926.13;8281159;28;20240;-75
2022/08/15 17:52:35;;;;;;;5.53;1.80;;;;;;;28.53;30.73;96938.22;8280736;28;20237;-75
2022/08/15 17:56:48;;;;;;;5.27;2.03;;;;;;;28.54;31.12;96953.19;8280900;28;20300;-75
2022/08/15 18:00:52;;;;;;;7.40;1.87;;;;;;;28.42;31.97;96952.16;8280574;28;20234;-75
2022/08/15 18:04:55;;;;;;;4.27;1.90;;;;;;;28.44;32.26;96963.41;8284028;28;20233;-76
2022/08/15 18:09:13;;;;;;;6.20;1.83;;;;;;;28.37;31.86;96973.22;8286901;28;20240;-75
2022/08/15 18:13:19;;;;;;;23.97;2.50;;;;;;;28.32;32.69;96978.38;8286389;28;20332;-75
2022/08/15 18:17:30;;;;;;;3.73;1.43;;;;;;;28.25;31.91;96984.53;8286358;28;20239;-76
2022/08/15 18:21:38;;;;;;;4.60;1.70;;;;;;;28.16;32.32;96990.22;8286581;28;20233;-75
2022/08/15 18:25:43;;;;;;;2.97;1.90;;;;;;;28.18;32.12;97002.31;8286252;28;20292;-76
2022/08/15 18:29:55;;;;;;;3.87;2.00;;;;;;;28.14;32.09;96995.78;8285631;28;20234;-75
2022/08/15 18:33:59;;;;;;;3.50;1.83;;;;;;;28.06;32.10;97001.25;8286144;28;20249;-75
2022/08/15 18:38:20;;;;;;;3.33;1.97;;;;;;;28.03;32.50;97009.66;8285911;28;20283;-75
2022/08/15 18:42:35;;;;;;;4.33;1.90;;;;;;;27.95;32.72;97020.47;8285896;28;20251;-76
2022/08/15 18:46:56;;;;;;;5.43;2.00;;;;;;;27.94;32.72;97037.47;8285195;28;20239;-75
2022/08/15 18:51:04;;;;;;;5.90;2.00;;;;;;;27.84;33.14;97057.28;8285324;28;20236;-77
2022/08/15 18:55:20;;;;;;;7.30;2.17;;;;;;;27.79;34.00;97065.03;8285489;28;20242;-76
2022/08/15 18:59:26;;;;;;;7.17;2.10;;;;;;;27.64;34.77;97073.13;8284974;28;20424;-76
2022/08/15 19:03:33;;;;;;;9.40;2.37;;;;;;;27.45;35.15;97076.53;8285202;28;20282;-77
2022/08/15 19:07:47;;;;;;;8.50;2.63;;;;;;;27.54;35.25;97086.00;8284277;28;20231;-76
2022/08/15 19:11:51;;;;;;;12.30;2.60;;;;;;;27.36;35.55;97094.50;8284379;28;20420;-76
2022/08/15 19:16:09;;;;;;;9.07;2.57;;;;;;;27.26;35.45;97092.19;8284404;28;20241;-76
2022/08/15 19:20:23;;;;;;;5.97;2.37;;;;;;;27.29;35.86;97109.59;8284676;28;20254;-76
2022/08/15 19:24:30;;;;;;;5.73;2.00;;;;;;;27.26;35.42;97110.81;8284637;28;20535;-76
2022/08/15 19:28:45;;;;;;;7.63;2.00;;;;;;;27.20;35.44;97111.53;8284507;28;20343;-75
2022/08/15 19:33:01;;;;;;;6.17;2.00;;;;;;;27.25;35.44;97113.66;8284113;28;20227;-74
2022/08/15 19:37:13;;;;;;;3.70;1.90;;;;;;;27.28;35.22;97118.56;8284450;28;20544;-74
2022/08/15 19:41:20;;;;;;;5.50;2.10;;;;;;;27.18;35.16;97126.84;8284542;28;20253;-74
2022/08/15 19:45:29;;;;;;;6.20;1.80;;;;;;;27.13;34.93;97136.41;8284099;28;20239;-74